Time;durP1;ratioP1;P1;durP2;ratioP2;P2;SDS_P1;SDS_P2;PMS_P1;PMS_P2;Temp;Humidity;BMP_temperature;BMP_pressure;BME280_temperature;BME280_humidity;BME280_pressure;Samples;Min_cycle;Max_cycle;Signal;HPM_P1;HPM_P2
2022/10/27 00:01:57;;;;;;;17.30;11.68;;;;;;;;;;4985559;28;20061;-73
2022/10/27 00:04:23;;;;;;;16.05;11.77;;;;;;;;;;4983904;28;20041;-74
2022/10/27 00:06:48;;;;;;;16.90;12.18;;;;;;;;;;4985657;28;20571;-74
2022/10/27 00:09:14;;;;;;;21.30;11.80;;;;;;;;;;4987053;28;20034;-73
2022/10/27 00:11:39;;;;;;;13.18;11.60;;;;;;;;;;4985309;28;20038;-73
2022/10/27 00:14:05;;;;;;;14.48;11.32;;;;;;;;;;4983154;28;20029;-73
2022/10/27 00:16:30;;;;;;;14.60;11.73;;;;;;;;;;4983108;28;20512;-73
2022/10/27 00:18:56;;;;;;;17.73;11.90;;;;;;;;;;4986068;28;20034;-73
2022/10/27 00:21:22;;;;;;;11.57;10.10;;;;;;;;;;4985365;28;20206;-74
2022/10/27 00:23:50;;;;;;;16.50;11.25;;;;;;;;;;4980830;28;20034;-73
2022/10/27 00:26:19;;;;;;;15.45;11.73;;;;;;;;;;4985720;28;20086;-73
2022/10/27 00:28:45;;;;;;;21.75;11.52;;;;;;;;;;4981750;28;20042;-73
2022/10/27 00:31:19;;;;;;;17.52;11.85;;;;;;;;;;4985177;28;20038;-73
2022/10/27 00:33:47;;;;;;;16.70;11.48;;;;;;;;;;4985540;28;20037;-73
2022/10/27 00:36:15;;;;;;;15.27;11.95;;;;;;;;;;4984696;28;20165;-73
2022/10/27 00:38:41;;;;;;;13.30;11.82;;;;;;;;;;4986380;28;20026;-73
2022/10/27 00:41:24;;;;;;;14.50;11.65;;;;;;;;;;4983450;28;20042;-73
2022/10/27 00:43:50;;;;;;;17.77;11.45;;;;;;;;;;4983051;28;20067;-73
2022/10/27 00:46:34;;;;;;;12.32;11.02;;;;;;;;;;4987113;28;20132;-73
2022/10/27 00:49:08;;;;;;;12.13;10.57;;;;;;;;;;4981714;28;20117;-73
2022/10/27 00:51:38;;;;;;;14.07;11.68;;;;;;;;;;4983229;28;20053;-73
2022/10/27 00:54:04;;;;;;;12.50;10.82;;;;;;;;;;4986185;28;20042;-73
2022/10/27 00:56:30;;;;;;;20.92;11.60;;;;;;;;;;4982789;28;20065;-73
2022/10/27 00:58:56;;;;;;;20.08;11.93;;;;;;;;;;4982969;28;20042;-73
2022/10/27 01:01:22;;;;;;;13.75;11.05;;;;;;;;;;4984724;28;20038;-73
2022/10/27 01:03:48;;;;;;;15.10;10.73;;;;;;;;;;4983654;28;20043;-73
2022/10/27 01:06:14;;;;;;;12.98;9.90;;;;;;;;;;4984745;28;20026;-73
2022/10/27 01:08:41;;;;;;;12.38;10.43;;;;;;;;;;4985663;28;20118;-73
2022/10/27 01:11:06;;;;;;;15.30;10.93;;;;;;;;;;4986090;28;20026;-73
2022/10/27 01:13:32;;;;;;;11.90;10.18;;;;;;;;;;4985251;28;20547;-73
2022/10/27 01:16:31;;;;;;;12.20;10.80;;;;;;;;;;4984478;28;20030;-73
2022/10/27 01:19:29;;;;;;;12.48;10.25;;;;;;;;;;4986337;28;20047;-73
2022/10/27 01:22:31;;;;;;;12.20;10.90;;;;;;;;;;4977255;28;20418;-73
2022/10/27 01:25:02;;;;;;;10.90;9.90;;;;;;;;;;4986191;28;20125;-73
2022/10/27 01:27:37;;;;;;;12.85;10.27;;;;;;;;;;4990679;28;20088;-74
2022/10/27 01:30:08;;;;;;;15.10;10.40;;;;;;;;;;4984425;28;20050;-73
2022/10/27 01:32:39;;;;;;;11.63;10.15;;;;;;;;;;4988537;28;20027;-73
2022/10/27 01:35:26;;;;;;;18.05;10.77;;;;;;;;;;4988757;28;20026;-73
2022/10/27 01:37:58;;;;;;;11.13;10.02;;;;;;;;;;4988903;28;20030;-73
2022/10/27 01:40:30;;;;;;;13.27;10.27;;;;;;;;;;4986344;28;20169;-74
2022/10/27 01:43:05;;;;;;;14.80;11.43;;;;;;;;;;4989762;28;20456;-73
2022/10/27 01:45:34;;;;;;;11.40;10.23;;;;;;;;;;4989404;28;20034;-73
2022/10/27 01:48:00;;;;;;;12.05;10.30;;;;;;;;;;4983423;28;20034;-73
2022/10/27 01:50:37;;;;;;;11.43;10.25;;;;;;;;;;4990331;28;20038;-73
2022/10/27 01:53:03;;;;;;;13.70;10.30;;;;;;;;;;4988050;28;20030;-73
2022/10/27 01:55:44;;;;;;;11.88;10.68;;;;;;;;;;4989210;28;20053;-73
2022/10/27 01:58:40;;;;;;;11.48;10.32;;;;;;;;;;4985435;28;20066;-73
2022/10/27 02:01:31;;;;;;;11.60;9.95;;;;;;;;;;4987257;28;20038;-73
2022/10/27 02:04:24;;;;;;;10.52;9.38;;;;;;;;;;4993708;28;20164;-73
2022/10/27 02:06:58;;;;;;;10.75;9.38;;;;;;;;;;4988051;28;20089;-73
2022/10/27 02:09:53;;;;;;;11.90;9.98;;;;;;;;;;4986407;28;20093;-73
2022/10/27 02:12:35;;;;;;;11.43;10.30;;;;;;;;;;4987856;28;20122;-73
2022/10/27 02:15:04;;;;;;;12.70;10.13;;;;;;;;;;4985668;28;20486;-73
2022/10/27 02:17:37;;;;;;;11.20;10.05;;;;;;;;;;4988963;28;20164;-73
2022/10/27 02:20:07;;;;;;;11.48;10.30;;;;;;;;;;4987940;28;20031;-73
2022/10/27 02:22:37;;;;;;;14.98;10.90;;;;;;;;;;4982635;28;20136;-73
2022/10/27 02:25:02;;;;;;;;;;;;;;;;;;4988980;28;20126;-73
2022/10/27 02:27:42;;;;;;;13.75;10.32;;;;;;;;;;4986178;28;19913;-73
2022/10/27 02:30:08;;;;;;;11.85;10.63;;;;;;;;;;4985784;28;20076;-73
2022/10/27 02:32:34;;;;;;;14.43;10.45;;;;;;;;;;4986349;28;20038;-73
2022/10/27 02:35:00;;;;;;;12.20;10.65;;;;;;;;;;4988746;28;20031;-73
2022/10/27 02:37:38;;;;;;;13.85;10.52;;;;;;;;;;4983660;28;20043;-73
2022/10/27 02:40:05;;;;;;;11.18;9.77;;;;;;;;;;4988180;28;20522;-73
2022/10/27 02:42:30;;;;;;;11.50;10.43;;;;;;;;;;4988583;28;20037;-74
2022/10/27 02:44:56;;;;;;;12.82;10.07;;;;;;;;;;4987464;28;20042;-73
2022/10/27 02:47:21;;;;;;;11.77;10.57;;;;;;;;;;4985805;28;20502;-73
2022/10/27 02:49:47;;;;;;;11.95;9.98;;;;;;;;;;4986925;28;20029;-73
2022/10/27 02:52:12;;;;;;;16.65;10.10;;;;;;;;;;4982437;28;20042;-73
2022/10/27 02:54:39;;;;;;;10.82;9.75;;;;;;;;;;4987553;28;20030;-73
2022/10/27 02:57:05;;;;;;;11.20;9.73;;;;;;;;;;4987871;28;20133;-73
2022/10/27 02:59:30;;;;;;;10.95;9.88;;;;;;;;;;4984709;28;20189;-73
2022/10/27 03:01:56;;;;;;;37.95;10.40;;;;;;;;;;4986626;28;20038;-73
2022/10/27 03:04:22;;;;;;;10.90;9.80;;;;;;;;;;4985275;28;20140;-73
2022/10/27 03:06:48;;;;;;;14.65;10.45;;;;;;;;;;4987428;28;20041;-73
2022/10/27 03:09:13;;;;;;;144.65;14.52;;;;;;;;;;4985640;28;20552;-74
2022/10/27 03:11:39;;;;;;;116.30;12.18;;;;;;;;;;4984941;28;20426;-74
2022/10/27 03:14:04;;;;;;;39.00;10.30;;;;;;;;;;4985955;28;20467;-74
2022/10/27 03:16:30;;;;;;;74.03;12.23;;;;;;;;;;4984651;28;20034;-74
2022/10/27 03:18:55;;;;;;;39.80;11.00;;;;;;;;;;4982814;28;20030;-74
2022/10/27 03:21:21;;;;;;;95.60;12.10;;;;;;;;;;4986347;28;20210;-74
2022/10/27 03:23:46;;;;;;;193.10;14.90;;;;;;;;;;4985507;28;20047;-74
2022/10/27 03:26:12;;;;;;;83.75;11.10;;;;;;;;;;4984729;28;20038;-74
2022/10/27 03:28:37;;;;;;;230.43;14.95;;;;;;;;;;4985451;28;20042;-74
2022/10/27 03:31:04;;;;;;;146.63;13.38;;;;;;;;;;4985902;28;20484;-74
2022/10/27 03:33:30;;;;;;;108.43;11.65;;;;;;;;;;4984425;28;20556;-74
2022/10/27 03:35:56;;;;;;;62.92;11.45;;;;;;;;;;4982788;28;20569;-74
2022/10/27 03:38:21;;;;;;;64.00;11.07;;;;;;;;;;4987936;28;20034;-74
2022/10/27 03:40:47;;;;;;;27.83;10.15;;;;;;;;;;4987416;28;20121;-74
2022/10/27 03:43:12;;;;;;;23.63;10.50;;;;;;;;;;4987297;28;20030;-74
2022/10/27 03:45:38;;;;;;;11.30;10.18;;;;;;;;;;4980560;28;20045;-74
2022/10/27 03:48:10;;;;;;;141.70;13.77;;;;;;;;;;4984744;28;20034;-74
2022/10/27 03:50:36;;;;;;;279.23;17.50;;;;;;;;;;4987678;28;20129;-74
2022/10/27 03:53:02;;;;;;;158.52;13.77;;;;;;;;;;4986743;28;20062;-74
2022/10/27 03:55:28;;;;;;;237.77;15.80;;;;;;;;;;4984242;28;20128;-74
2022/10/27 03:57:54;;;;;;;131.25;12.60;;;;;;;;;;4983519;28;20030;-74
2022/10/27 04:00:21;;;;;;;258.35;15.32;;;;;;;;;;4986020;28;20044;-74
2022/10/27 04:02:47;;;;;;;217.70;16.58;;;;;;;;;;4985934;28;20037;-74
2022/10/27 04:05:13;;;;;;;81.65;12.50;;;;;;;;;;4974329;28;20052;-74
2022/10/27 04:07:38;;;;;;;162.10;14.00;;;;;;;;;;4984513;28;20494;-74
2022/10/27 04:10:04;;;;;;;108.68;12.75;;;;;;;;;;4988261;28;20478;-74
2022/10/27 04:12:30;;;;;;;82.15;13.65;;;;;;;;;;4985689;28;20092;-74
2022/10/27 04:14:55;;;;;;;93.80;12.93;;;;;;;;;;4978091;28;20084;-73
2022/10/27 04:17:21;;;;;;;59.30;11.90;;;;;;;;;;4986071;28;20036;-73
2022/10/27 04:19:47;;;;;;;23.98;11.70;;;;;;;;;;4975912;28;20073;-73
2022/10/27 04:22:12;;;;;;;41.80;11.77;;;;;;;;;;4983541;28;20467;-73
2022/10/27 04:24:40;;;;;;;24.60;11.52;;;;;;;;;;4987659;28;20062;-73
2022/10/27 04:27:07;;;;;;;24.60;11.00;;;;;;;;;;4988645;28;20026;-73
2022/10/27 04:29:32;;;;;;;11.88;10.52;;;;;;;;;;4983205;28;20026;-73
2022/10/27 04:31:58;;;;;;;14.98;10.30;;;;;;;;;;4981705;28;20027;-73
2022/10/27 04:34:24;;;;;;;11.57;9.55;;;;;;;;;;4987339;28;20061;-73
2022/10/27 04:36:49;;;;;;;13.63;10.13;;;;;;;;;;4988481;28;20077;-74
2022/10/27 04:39:15;;;;;;;14.27;10.20;;;;;;;;;;4988467;28;20050;-73
2022/10/27 04:41:41;;;;;;;16.75;9.85;;;;;;;;;;4985270;28;20045;-73
2022/10/27 04:44:07;;;;;;;11.45;10.38;;;;;;;;;;4985051;28;20049;-73
2022/10/27 04:46:33;;;;;;;10.23;9.20;;;;;;;;;;4987540;28;20038;-73
2022/10/27 04:48:59;;;;;;;17.58;9.90;;;;;;;;;;4988541;28;20034;-73
2022/10/27 04:51:24;;;;;;;19.88;9.77;;;;;;;;;;4984437;28;20501;-73
2022/10/27 04:53:50;;;;;;;19.75;9.23;;;;;;;;;;4986633;28;20057;-73
2022/10/27 04:56:16;;;;;;;12.55;9.63;;;;;;;;;;4987812;28;20038;-73
2022/10/27 04:58:41;;;;;;;14.48;9.45;;;;;;;;;;4987229;28;20034;-73
2022/10/27 05:01:12;;;;;;;10.60;9.60;;;;;;;;;;4987300;28;20050;-73
2022/10/27 05:03:38;;;;;;;10.05;9.15;;;;;;;;;;4990179;28;20060;-73
2022/10/27 05:06:04;;;;;;;10.52;9.63;;;;;;;;;;4991580;28;20495;-73
2022/10/27 05:08:30;;;;;;;10.70;9.90;;;;;;;;;;4990678;28;20069;-73
2022/10/27 05:10:56;;;;;;;9.68;8.88;;;;;;;;;;4988107;28;20058;-73
2022/10/27 05:13:22;;;;;;;10.00;9.30;;;;;;;;;;4989679;28;20039;-73
2022/10/27 05:15:47;;;;;;;10.40;9.50;;;;;;;;;;4990896;28;20034;-73
2022/10/27 05:18:13;;;;;;;10.45;9.55;;;;;;;;;;4987842;28;20494;-73
2022/10/27 05:20:39;;;;;;;9.95;9.15;;;;;;;;;;4991326;28;20034;-73
2022/10/27 05:23:04;;;;;;;10.30;9.25;;;;;;;;;;4991557;28;20066;-73
2022/10/27 05:25:30;;;;;;;11.07;9.90;;;;;;;;;;4988178;28;20034;-73
2022/10/27 05:28:07;;;;;;;15.05;10.63;;;;;;;;;;4990959;28;20026;-73
2022/10/27 05:30:33;;;;;;;63.50;11.07;;;;;;;;;;4989308;28;20165;-73
2022/10/27 05:32:58;;;;;;;73.50;10.60;;;;;;;;;;4990286;28;20038;-73
2022/10/27 05:35:24;;;;;;;185.90;14.07;;;;;;;;;;4988225;28;20385;-73
2022/10/27 05:37:50;;;;;;;152.38;12.88;;;;;;;;;;4988079;28;20034;-73
2022/10/27 05:40:16;;;;;;;218.60;14.13;;;;;;;;;;4988736;28;20049;-73
2022/10/27 05:42:51;;;;;;;223.07;16.27;;;;;;;;;;4987744;28;20038;-73
2022/10/27 05:45:18;;;;;;;122.18;12.77;;;;;;;;;;4986927;28;20189;-74
2022/10/27 05:47:44;;;;;;;87.28;11.82;;;;;;;;;;4990932;28;20034;-74
2022/10/27 05:50:09;;;;;;;44.05;10.77;;;;;;;;;;4986248;28;20053;-74
2022/10/27 05:52:35;;;;;;;60.00;10.70;;;;;;;;;;4986977;28;20121;-74
2022/10/27 05:55:00;;;;;;;81.90;11.65;;;;;;;;;;4989918;28;20089;-74
2022/10/27 05:57:26;;;;;;;131.60;12.38;;;;;;;;;;4990198;28;20030;-74
2022/10/27 05:59:52;;;;;;;198.52;14.43;;;;;;;;;;4987188;28;20070;-74
2022/10/27 06:02:17;;;;;;;139.65;13.63;;;;;;;;;;4987437;28;20081;-75
2022/10/27 06:04:43;;;;;;;34.33;9.90;;;;;;;;;;4990541;28;20043;-75
2022/10/27 06:07:08;;;;;;;125.47;12.85;;;;;;;;;;4989171;28;20450;-75
2022/10/27 06:09:34;;;;;;;36.05;10.40;;;;;;;;;;4987643;28;20030;-75
2022/10/27 06:11:59;;;;;;;55.85;11.02;;;;;;;;;;4989728;28;20030;-75
2022/10/27 06:14:25;;;;;;;58.53;10.40;;;;;;;;;;4986931;28;20031;-75
2022/10/27 06:16:50;;;;;;;62.28;10.82;;;;;;;;;;4987646;28;20073;-75
2022/10/27 06:19:16;;;;;;;29.00;10.57;;;;;;;;;;4989622;28;20109;-75
2022/10/27 06:21:41;;;;;;;9.32;8.25;;;;;;;;;;4989990;28;20052;-74
2022/10/27 06:24:07;;;;;;;32.50;10.88;;;;;;;;;;4989451;28;20042;-75
2022/10/27 06:26:33;;;;;;;19.45;9.75;;;;;;;;;;4986413;28;20487;-74
2022/10/27 06:28:58;;;;;;;11.75;9.77;;;;;;;;;;4985827;28;20042;-75
2022/10/27 06:31:24;;;;;;;12.43;9.30;;;;;;;;;;4989060;28;21317;-74
2022/10/27 06:33:49;;;;;;;11.70;10.43;;;;;;;;;;4983784;28;20042;-75
2022/10/27 06:36:15;;;;;;;18.73;10.07;;;;;;;;;;4990008;28;20031;-74
2022/10/27 06:38:40;;;;;;;30.73;11.07;;;;;;;;;;4987839;28;20735;-75
2022/10/27 06:41:06;;;;;;;16.83;10.23;;;;;;;;;;4986018;28;21573;-75
2022/10/27 06:43:32;;;;;;;11.27;10.27;;;;;;;;;;4988534;28;20616;-75
2022/10/27 06:45:57;;;;;;;14.45;10.15;;;;;;;;;;4988770;28;20026;-74
2022/10/27 06:48:23;;;;;;;36.10;10.40;;;;;;;;;;4986107;28;20060;-75
2022/10/27 06:50:48;;;;;;;40.95;11.50;;;;;;;;;;4986267;28;20567;-75
2022/10/27 06:53:14;;;;;;;25.15;10.98;;;;;;;;;;4986913;28;20038;-75
2022/10/27 06:55:40;;;;;;;128.65;13.30;;;;;;;;;;4988215;28;20034;-75
2022/10/27 06:58:06;;;;;;;98.68;12.68;;;;;;;;;;4987801;28;20701;-75
2022/10/27 07:00:31;;;;;;;57.95;11.98;;;;;;;;;;4988592;28;20054;-75
2022/10/27 07:02:57;;;;;;;64.55;11.63;;;;;;;;;;4989592;28;20054;-75
2022/10/27 07:05:23;;;;;;;33.97;11.38;;;;;;;;;;4986997;28;20425;-75
2022/10/27 07:07:51;;;;;;;20.77;10.93;;;;;;;;;;4985261;28;20042;-75
2022/10/27 07:10:17;;;;;;;12.30;10.05;;;;;;;;;;4988469;28;20096;-75
2022/10/27 07:12:52;;;;;;;11.18;9.90;;;;;;;;;;4987003;28;20030;-74
2022/10/27 07:15:18;;;;;;;16.98;10.15;;;;;;;;;;4985742;28;20030;-75
2022/10/27 07:17:43;;;;;;;10.93;9.93;;;;;;;;;;4987946;28;20038;-75
2022/10/27 07:20:09;;;;;;;10.80;9.90;;;;;;;;;;4988003;28;20034;-75
2022/10/27 07:22:35;;;;;;;11.30;10.25;;;;;;;;;;4983997;28;20026;-75
2022/10/27 07:25:00;;;;;;;10.85;10.02;;;;;;;;;;4987471;28;20038;-76
2022/10/27 07:27:26;;;;;;;21.73;10.07;;;;;;;;;;4988079;28;20121;-76
2022/10/27 07:29:51;;;;;;;14.50;9.90;;;;;;;;;;4986844;28;22881;-75
2022/10/27 07:32:17;;;;;;;13.80;9.48;;;;;;;;;;4985720;28;20566;-75
2022/10/27 07:34:42;;;;;;;10.13;9.32;;;;;;;;;;4987856;28;20034;-75
2022/10/27 07:37:08;;;;;;;15.73;9.40;;;;;;;;;;4987727;28;20037;-75
2022/10/27 07:39:33;;;;;;;9.43;8.82;;;;;;;;;;4986844;28;20730;-76
2022/10/27 07:41:59;;;;;;;12.68;9.70;;;;;;;;;;4988916;28;20037;-75
2022/10/27 07:44:25;;;;;;;21.58;9.48;;;;;;;;;;4987233;28;20030;-76
2022/10/27 07:46:50;;;;;;;29.60;9.80;;;;;;;;;;4984644;28;20034;-76
2022/10/27 07:49:16;;;;;;;16.40;9.90;;;;;;;;;;4984186;28;20089;-76
2022/10/27 07:51:41;;;;;;;10.35;9.38;;;;;;;;;;4987383;28;20513;-76
2022/10/27 07:54:07;;;;;;;10.07;9.38;;;;;;;;;;4982122;28;20044;-76
2022/10/27 07:56:35;;;;;;;10.13;9.32;;;;;;;;;;4987076;28;20038;-76
2022/10/27 07:59:01;;;;;;;10.10;9.40;;;;;;;;;;4987714;28;20085;-76
2022/10/27 08:01:26;;;;;;;10.13;9.30;;;;;;;;;;4986440;28;20042;-76
2022/10/27 08:03:52;;;;;;;9.40;8.80;;;;;;;;;;4985805;28;20038;-76
2022/10/27 08:06:18;;;;;;;10.00;9.30;;;;;;;;;;4982285;28;20038;-76
2022/10/27 08:08:44;;;;;;;9.55;8.95;;;;;;;;;;4987501;28;20675;-76
2022/10/27 08:11:09;;;;;;;9.80;9.10;;;;;;;;;;4986606;28;20038;-76
2022/10/27 08:13:35;;;;;;;9.55;8.77;;;;;;;;;;4985988;28;20133;-75
2022/10/27 08:16:00;;;;;;;9.32;8.63;;;;;;;;;;4986686;28;20069;-76
2022/10/27 08:18:26;;;;;;;9.50;8.80;;;;;;;;;;4985821;28;20038;-75
2022/10/27 08:20:52;;;;;;;9.63;8.93;;;;;;;;;;4985665;28;20457;-75
2022/10/27 08:23:20;;;;;;;9.52;8.93;;;;;;;;;;4988392;28;20030;-75
2022/10/27 08:25:46;;;;;;;8.70;8.20;;;;;;;;;;4987220;28;20034;-75
2022/10/27 08:28:13;;;;;;;8.90;8.32;;;;;;;;;;4976139;28;20053;-76
2022/10/27 08:30:39;;;;;;;9.00;8.25;;;;;;;;;;4980814;28;20034;-75
2022/10/27 08:33:05;;;;;;;9.10;8.40;;;;;;;;;;4987599;28;20041;-75
2022/10/27 08:35:32;;;;;;;9.40;8.77;;;;;;;;;;4985746;28;20229;-75
2022/10/27 08:38:04;;;;;;;9.30;8.70;;;;;;;;;;4983523;28;20038;-76
2022/10/27 08:41:04;;;;;;;9.57;8.60;;;;;;;;;;4984970;28;20034;-75
2022/10/27 08:43:42;;;;;;;9.38;8.57;;;;;;;;;;4982128;28;20130;-75
2022/10/27 08:46:29;;;;;;;8.70;8.20;;;;;;;;;;4983021;28;20042;-75
2022/10/27 08:49:01;;;;;;;9.77;8.90;;;;;;;;;;4985342;28;20042;-75
2022/10/27 08:51:29;;;;;;;10.75;9.68;;;;;;;;;;4985656;28;20112;-75
2022/10/27 08:53:55;;;;;;;10.63;9.73;;;;;;;;;;4987165;28;20030;-75
2022/10/27 08:56:24;;;;;;;11.38;10.38;;;;;;;;;;4983112;28;20033;-75
2022/10/27 08:58:50;;;;;;;11.60;10.50;;;;;;;;;;4986499;28;20035;-75
2022/10/27 09:01:18;;;;;;;13.90;10.20;;;;;;;;;;4985985;28;20037;-75
2022/10/27 09:03:50;;;;;;;11.50;10.20;;;;;;;;;;4983735;28;20038;-75
2022/10/27 09:06:56;;;;;;;13.63;9.43;;;;;;;;;;4987062;28;20097;-75
2022/10/27 09:09:37;;;;;;;13.10;9.98;;;;;;;;;;4987437;28;20069;-75
2022/10/27 09:12:21;;;;;;;10.05;9.15;;;;;;;;;;4987201;28;20073;-75
2022/10/27 09:15:24;;;;;;;10.13;9.13;;;;;;;;;;4984193;28;20514;-74
2022/10/27 09:17:56;;;;;;;9.65;8.68;;;;;;;;;;4984584;28;20070;-75
2022/10/27 09:20:34;;;;;;;9.38;8.38;;;;;;;;;;4987411;28;20038;-75
2022/10/27 09:23:04;;;;;;;9.50;8.50;;;;;;;;;;4982408;28;20521;-75
2022/10/27 09:25:31;;;;;;;12.98;8.65;;;;;;;;;;4986658;28;20022;-75
2022/10/27 09:27:58;;;;;;;10.32;8.82;;;;;;;;;;4987530;28;20405;-75
2022/10/27 09:30:28;;;;;;;9.70;8.20;;;;;;;;;;4987645;28;20474;-75
2022/10/27 09:32:55;;;;;;;9.38;8.30;;;;;;;;;;4984853;28;20042;-75
2022/10/27 09:35:27;;;;;;;11.77;8.25;;;;;;;;;;4987166;28;20081;-74
2022/10/27 09:37:56;;;;;;;10.40;7.90;;;;;;;;;;4987607;28;20509;-75
2022/10/27 09:40:22;;;;;;;;;;;;;;;;;;4987786;28;20038;-75
2022/10/27 09:42:55;;;;;;;8.98;8.05;;;;;;;;;;4985051;28;19925;-75
2022/10/27 09:45:26;;;;;;;8.70;7.90;;;;;;;;;;4986684;28;20038;-75
2022/10/27 09:47:55;;;;;;;11.73;7.88;;;;;;;;;;4991328;28;20117;-75
2022/10/27 09:50:35;;;;;;;8.68;7.95;;;;;;;;;;4987226;28;20061;-75
2022/10/27 09:53:02;;;;;;;10.40;7.80;;;;;;;;;;4989816;28;20069;-75
2022/10/27 09:55:49;;;;;;;8.48;7.70;;;;;;;;;;4990783;28;20113;-75
2022/10/27 09:58:15;;;;;;;9.73;7.40;;;;;;;;;;4989757;28;20042;-75
2022/10/27 10:00:41;;;;;;;11.63;7.70;;;;;;;;;;4988076;28;20030;-75
2022/10/27 10:03:27;;;;;;;8.98;7.38;;;;;;;;;;4990566;28;20042;-75
2022/10/27 10:06:01;;;;;;;9.07;7.55;;;;;;;;;;4990348;28;20126;-75
2022/10/27 10:08:30;;;;;;;12.43;8.20;;;;;;;;;;4990319;28;20026;-75
2022/10/27 10:11:04;;;;;;;10.10;8.27;;;;;;;;;;4987260;28;20034;-75
2022/10/27 10:13:32;;;;;;;7.97;7.20;;;;;;;;;;4990388;28;20097;-75
2022/10/27 10:16:13;;;;;;;9.90;7.25;;;;;;;;;;4990574;28;20110;-75
2022/10/27 10:18:42;;;;;;;8.73;6.78;;;;;;;;;;4985462;28;20161;-75
2022/10/27 10:21:10;;;;;;;9.65;6.72;;;;;;;;;;4989739;28;20046;-75
2022/10/27 10:23:38;;;;;;;7.00;6.18;;;;;;;;;;4990118;28;20042;-75
2022/10/27 10:26:14;;;;;;;7.85;7.05;;;;;;;;;;4990406;28;20165;-75
2022/10/27 10:28:42;;;;;;;15.90;7.10;;;;;;;;;;4984766;28;20485;-75
2022/10/27 10:31:10;;;;;;;8.93;7.07;;;;;;;;;;4989390;28;20536;-75
2022/10/27 10:33:38;;;;;;;;;;;;;;;;;;4989123;28;20549;-75
2022/10/27 10:36:16;;;;;;;8.95;6.47;;;;;;;;;;4987385;28;20373;-75
2022/10/27 10:38:48;;;;;;;12.27;6.80;;;;;;;;;;4988008;28;20038;-74
2022/10/27 10:41:21;;;;;;;10.43;7.10;;;;;;;;;;4987230;28;20041;-75
2022/10/27 10:44:07;;;;;;;8.20;7.15;;;;;;;;;;4988472;28;20057;-75
2022/10/27 10:46:34;;;;;;;7.50;6.80;;;;;;;;;;4985860;28;20101;-75
2022/10/27 10:49:01;;;;;;;8.00;7.20;;;;;;;;;;4987864;28;20042;-75
2022/10/27 10:51:33;;;;;;;9.80;7.60;;;;;;;;;;4989491;28;20568;-75
2022/10/27 10:54:04;;;;;;;10.93;7.63;;;;;;;;;;4984812;28;20506;-75
2022/10/27 10:56:33;;;;;;;9.25;7.50;;;;;;;;;;4987814;28;20517;-75
2022/10/27 10:59:11;;;;;;;8.82;7.97;;;;;;;;;;4988007;28;20042;-75
2022/10/27 11:01:44;;;;;;;8.25;7.53;;;;;;;;;;4988442;28;20049;-75
2022/10/27 11:04:12;;;;;;;12.88;8.25;;;;;;;;;;4985475;28;20046;-75
2022/10/27 11:06:55;;;;;;;9.35;7.47;;;;;;;;;;4989330;28;20355;-74
2022/10/27 11:09:21;;;;;;;10.98;7.38;;;;;;;;;;4986820;28;20070;-75
2022/10/27 11:11:48;;;;;;;8.57;7.30;;;;;;;;;;4987174;28;20042;-75
2022/10/27 11:14:18;;;;;;;8.02;7.22;;;;;;;;;;4984121;28;20658;-75
2022/10/27 11:16:51;;;;;;;13.95;7.68;;;;;;;;;;4987357;28;20199;-75
2022/10/27 11:19:20;;;;;;;10.82;7.70;;;;;;;;;;4987060;28;20096;-75
2022/10/27 11:21:55;;;;;;;11.77;8.13;;;;;;;;;;4983030;28;20116;-75
2022/10/27 11:24:21;;;;;;;10.02;7.95;;;;;;;;;;4985824;28;20030;-75
2022/10/27 11:27:09;;;;;;;12.82;7.80;;;;;;;;;;4989062;28;20030;-75
2022/10/27 11:29:56;;;;;;;9.70;8.27;;;;;;;;;;4986651;28;20066;-75
2022/10/27 11:33:04;;;;;;;9.63;7.88;;;;;;;;;;4982884;28;20073;-75
2022/10/27 11:35:53;;;;;;;9.30;7.60;;;;;;;;;;4993944;28;20137;-75
2022/10/27 11:38:30;;;;;;;9.15;8.30;;;;;;;;;;4983203;28;20664;-75
2022/10/27 11:40:55;;;;;;;11.00;7.93;;;;;;;;;;4985311;28;20454;-75
2022/10/27 11:43:53;;;;;;;9.43;8.30;;;;;;;;;;4987218;28;20132;-75
2022/10/27 11:46:45;;;;;;;13.77;8.43;;;;;;;;;;4985609;28;20552;-75
2022/10/27 11:49:58;;;;;;;11.48;8.50;;;;;;;;;;4979741;28;20166;-75
2022/10/27 11:52:36;;;;;;;9.48;8.40;;;;;;;;;;4981591;28;20138;-75
2022/10/27 11:55:07;;;;;;;11.90;8.68;;;;;;;;;;4986571;28;20034;-75
2022/10/27 11:58:10;;;;;;;14.70;8.43;;;;;;;;;;4984931;28;20129;-75
2022/10/27 12:01:09;;;;;;;9.93;8.95;;;;;;;;;;4982430;28;20052;-75
2022/10/27 12:04:15;;;;;;;10.23;8.98;;;;;;;;;;4979133;28;20046;-75
2022/10/27 12:07:01;;;;;;;13.10;9.55;;;;;;;;;;4981959;28;20121;-75
2022/10/27 12:09:46;;;;;;;14.63;9.60;;;;;;;;;;4981783;28;20060;-75
2022/10/27 12:12:19;;;;;;;10.05;9.13;;;;;;;;;;4983562;28;20034;-75
2022/10/27 12:15:13;;;;;;;12.55;9.25;;;;;;;;;;4983705;28;20073;-75
2022/10/27 12:17:45;;;;;;;11.52;9.35;;;;;;;;;;4983529;28;20774;-75
2022/10/27 12:20:16;;;;;;;10.02;9.05;;;;;;;;;;4984419;28;20042;-75
2022/10/27 12:23:02;;;;;;;9.30;8.48;;;;;;;;;;4984011;28;20119;-74
2022/10/27 12:25:42;;;;;;;10.48;9.45;;;;;;;;;;4983802;28;20046;-75
2022/10/27 12:28:13;;;;;;;10.57;8.82;;;;;;;;;;4984249;28;20177;-75
2022/10/27 12:30:43;;;;;;;12.95;8.70;;;;;;;;;;4983775;28;20050;-75
2022/10/27 12:33:22;;;;;;;13.80;8.63;;;;;;;;;;4982739;28;20061;-75
2022/10/27 12:36:07;;;;;;;;;;;;;;;;;;4985356;28;20102;-74
2022/10/27 12:39:00;;;;;;;10.45;9.15;;;;;;;;;;4985981;28;19968;-75
2022/10/27 12:41:35;;;;;;;14.63;9.93;;;;;;;;;;4985131;28;20280;-74
2022/10/27 12:44:06;;;;;;;14.80;9.43;;;;;;;;;;4981614;28;20561;-74
2022/10/27 12:47:18;;;;;;;12.95;9.40;;;;;;;;;;4985306;28;20046;-75
2022/10/27 12:50:06;;;;;;;9.88;9.02;;;;;;;;;;4982992;28;20050;-74
2022/10/27 12:52:40;;;;;;;10.05;9.15;;;;;;;;;;4989265;28;20132;-74
2022/10/27 12:55:30;;;;;;;10.30;8.55;;;;;;;;;;4986241;28;20022;-74
2022/10/27 12:58:08;;;;;;;10.38;8.50;;;;;;;;;;4983568;28;20501;-74
2022/10/27 13:00:48;;;;;;;10.02;9.13;;;;;;;;;;4980238;28;20546;-74
2022/10/27 13:03:23;;;;;;;11.18;8.70;;;;;;;;;;4982948;28;20030;-74
2022/10/27 13:06:26;;;;;;;9.18;8.27;;;;;;;;;;4982915;28;20608;-74
2022/10/27 13:09:11;;;;;;;9.15;8.35;;;;;;;;;;4981590;28;20027;-74
2022/10/27 13:11:46;;;;;;;12.73;9.30;;;;;;;;;;4982847;28;20038;-74
2022/10/27 13:14:35;;;;;;;10.40;9.30;;;;;;;;;;4986520;28;20030;-75
2022/10/27 13:17:13;;;;;;;11.27;9.63;;;;;;;;;;4983860;28;20034;-75
2022/10/27 13:19:48;;;;;;;12.25;9.18;;;;;;;;;;4982075;28;20498;-75
2022/10/27 13:22:36;;;;;;;10.05;9.10;;;;;;;;;;4989132;28;20498;-75
2022/10/27 13:25:18;;;;;;;10.10;9.20;;;;;;;;;;4986992;28;20129;-74
2022/10/27 13:28:02;;;;;;;13.25;9.27;;;;;;;;;;4988504;28;20543;-74
2022/10/27 13:30:31;;;;;;;10.35;9.10;;;;;;;;;;4988687;28;20558;-75
2022/10/27 13:32:57;;;;;;;11.18;9.30;;;;;;;;;;4987845;28;20041;-74
2022/10/27 13:35:22;;;;;;;10.18;9.25;;;;;;;;;;4989390;28;20022;-74
2022/10/27 13:37:54;;;;;;;10.55;8.73;;;;;;;;;;4984435;28;20062;-74
2022/10/27 13:40:20;;;;;;;13.35;9.50;;;;;;;;;;4988168;28;20081;-74
2022/10/27 13:42:47;;;;;;;11.43;9.43;;;;;;;;;;4986908;28;20101;-75
2022/10/27 13:45:31;;;;;;;13.48;9.30;;;;;;;;;;4986125;28;20042;-75
2022/10/27 13:48:06;;;;;;;10.57;9.10;;;;;;;;;;4985599;28;20053;-75
2022/10/27 13:50:36;;;;;;;13.18;9.65;;;;;;;;;;4987465;28;20084;-74
2022/10/27 13:53:14;;;;;;;20.10;9.48;;;;;;;;;;4987701;28;20041;-74
2022/10/27 13:55:41;;;;;;;11.50;9.02;;;;;;;;;;4987169;28;20043;-74
2022/10/27 13:58:25;;;;;;;10.70;9.55;;;;;;;;;;4989644;28;20427;-74
2022/10/27 14:01:19;;;;;;;14.65;9.30;;;;;;;;;;4986128;28;20517;-74
2022/10/27 14:04:03;;;;;;;9.88;8.82;;;;;;;;;;4984845;28;20034;-74
2022/10/27 14:06:37;;;;;;;9.68;8.70;;;;;;;;;;4987419;28;20042;-74
2022/10/27 14:09:44;;;;;;;9.52;8.63;;;;;;;;;;4987370;28;20041;-74
2022/10/27 14:12:27;;;;;;;12.68;9.20;;;;;;;;;;4987445;28;20060;-74
2022/10/27 14:15:15;;;;;;;9.70;8.80;;;;;;;;;;4988399;28;20038;-74
2022/10/27 14:17:43;;;;;;;10.75;8.73;;;;;;;;;;4985068;28;20030;-74
2022/10/27 14:20:26;;;;;;;9.83;8.70;;;;;;;;;;4987435;28;20133;-74
2022/10/27 14:23:05;;;;;;;10.90;8.55;;;;;;;;;;4988751;28;20034;-74
2022/10/27 14:25:31;;;;;;;11.82;8.70;;;;;;;;;;4983192;28;20038;-74
2022/10/27 14:28:17;;;;;;;13.70;8.63;;;;;;;;;;4988294;28;20026;-74
2022/10/27 14:30:43;;;;;;;9.10;8.30;;;;;;;;;;4984959;28;20069;-74
2022/10/27 14:33:23;;;;;;;11.63;8.57;;;;;;;;;;4984003;28;20042;-74
2022/10/27 14:36:11;;;;;;;9.90;8.80;;;;;;;;;;4986136;28;20141;-73
2022/10/27 14:38:40;;;;;;;12.13;8.85;;;;;;;;;;4987713;28;20046;-74
2022/10/27 14:41:12;;;;;;;;;;;;;;;;;;4986447;28;20046;-74
2022/10/27 14:43:40;;;;;;;10.88;8.45;;;;;;;;;;4977314;28;19945;-74
2022/10/27 14:46:14;;;;;;;9.30;8.40;;;;;;;;;;4987803;28;20030;-74
2022/10/27 14:48:40;;;;;;;12.32;8.30;;;;;;;;;;4988487;28;20289;-74
2022/10/27 14:51:11;;;;;;;10.52;8.77;;;;;;;;;;4986221;28;20128;-74
2022/10/27 14:53:37;;;;;;;11.25;8.63;;;;;;;;;;4989522;28;20038;-75
2022/10/27 14:56:18;;;;;;;12.88;8.60;;;;;;;;;;4988776;28;20088;-74